sensor_id;sensor_type;location;lat;lon;timestamp;P1;durP1;ratioP1;P2;durP2;ratioP2
73733;SDS011;62039;50.000;9.064;2023-05-29T00:00:59;3.03;;;2.40;;
73733;SDS011;62039;50.000;9.064;2023-05-29T00:03:26;4.00;;;2.77;;
73733;SDS011;62039;50.000;9.064;2023-05-29T00:05:53;2.93;;;2.43;;
73733;SDS011;62039;50.000;9.064;2023-05-29T00:08:23;3.57;;;2.47;;
73733;SDS011;62039;50.000;9.064;2023-05-29T00:10:50;3.13;;;2.20;;
73733;SDS011;62039;50.000;9.064;2023-05-29T00:13:17;3.17;;;2.17;;
73733;SDS011;62039;50.000;9.064;2023-05-29T00:15:44;2.27;;;2.07;;
73733;SDS011;62039;50.000;9.064;2023-05-29T00:18:12;3.47;;;2.13;;
73733;SDS011;62039;50.000;9.064;2023-05-29T00:20:39;2.37;;;2.10;;
73733;SDS011;62039;50.000;9.064;2023-05-29T00:23:06;2.77;;;2.30;;
73733;SDS011;62039;50.000;9.064;2023-05-29T00:25:36;3.53;;;2.03;;
73733;SDS011;62039;50.000;9.064;2023-05-29T00:28:03;1.93;;;1.73;;
73733;SDS011;62039;50.000;9.064;2023-05-29T00:30:30;3.00;;;2.30;;
73733;SDS011;62039;50.000;9.064;2023-05-29T00:32:57;2.83;;;2.17;;
73733;SDS011;62039;50.000;9.064;2023-05-29T00:35:24;3.43;;;2.50;;
73733;SDS011;62039;50.000;9.064;2023-05-29T00:37:51;4.13;;;2.30;;
73733;SDS011;62039;50.000;9.064;2023-05-29T00:40:18;3.50;;;2.30;;
73733;SDS011;62039;50.000;9.064;2023-05-29T00:42:47;2.20;;;1.90;;
73733;SDS011;62039;50.000;9.064;2023-05-29T00:45:14;3.40;;;2.10;;
73733;SDS011;62039;50.000;9.064;2023-05-29T00:47:41;2.37;;;2.00;;
73733;SDS011;62039;50.000;9.064;2023-05-29T00:50:09;4.27;;;2.07;;
73733;SDS011;62039;50.000;9.064;2023-05-29T00:52:37;2.77;;;2.30;;
73733;SDS011;62039;50.000;9.064;2023-05-29T00:55:06;4.80;;;3.10;;
73733;SDS011;62039;50.000;9.064;2023-05-29T00:57:34;3.43;;;3.10;;
73733;SDS011;62039;50.000;9.064;2023-05-29T01:00:06;2.57;;;2.37;;
73733;SDS011;62039;50.000;9.064;2023-05-29T01:02:34;3.87;;;2.43;;
73733;SDS011;62039;50.000;9.064;2023-05-29T01:05:02;3.17;;;2.17;;
73733;SDS011;62039;50.000;9.064;2023-05-29T01:07:30;3.00;;;2.50;;
73733;SDS011;62039;50.000;9.064;2023-05-29T01:09:57;2.93;;;2.33;;
73733;SDS011;62039;50.000;9.064;2023-05-29T01:12:26;2.40;;;1.87;;
73733;SDS011;62039;50.000;9.064;2023-05-29T01:15:08;3.47;;;2.40;;
73733;SDS011;62039;50.000;9.064;2023-05-29T01:17:45;3.30;;;2.17;;
73733;SDS011;62039;50.000;9.064;2023-05-29T01:20:24;2.57;;;2.20;;
73733;SDS011;62039;50.000;9.064;2023-05-29T01:25:58;2.40;;;1.70;;
73733;SDS011;62039;50.000;9.064;2023-05-29T01:28:39;2.80;;;2.10;;
73733;SDS011;62039;50.000;9.064;2023-05-29T01:31:08;2.40;;;2.00;;
73733;SDS011;62039;50.000;9.064;2023-05-29T01:33:38;2.53;;;1.70;;
73733;SDS011;62039;50.000;9.064;2023-05-29T01:36:06;2.30;;;2.10;;
73733;SDS011;62039;50.000;9.064;2023-05-29T01:38:34;3.83;;;1.90;;
73733;SDS011;62039;50.000;9.064;2023-05-29T01:41:01;3.27;;;2.10;;
73733;SDS011;62039;50.000;9.064;2023-05-29T01:43:29;2.27;;;2.00;;
73733;SDS011;62039;50.000;9.064;2023-05-29T01:45:59;2.50;;;1.93;;
73733;SDS011;62039;50.000;9.064;2023-05-29T01:48:27;2.77;;;2.23;;
73733;SDS011;62039;50.000;9.064;2023-05-29T01:50:54;3.53;;;2.13;;
73733;SDS011;62039;50.000;9.064;2023-05-29T01:53:21;2.20;;;1.97;;
73733;SDS011;62039;50.000;9.064;2023-05-29T01:55:49;2.67;;;2.00;;
73733;SDS011;62039;50.000;9.064;2023-05-29T01:58:16;3.20;;;2.30;;
73733;SDS011;62039;50.000;9.064;2023-05-29T02:00:45;3.70;;;2.10;;
73733;SDS011;62039;50.000;9.064;2023-05-29T02:03:14;3.67;;;2.53;;
73733;SDS011;62039;50.000;9.064;2023-05-29T02:05:41;1.90;;;1.73;;
73733;SDS011;62039;50.000;9.064;2023-05-29T02:08:08;2.93;;;2.50;;
73733;SDS011;62039;50.000;9.064;2023-05-29T02:10:35;3.40;;;2.30;;
73733;SDS011;62039;50.000;9.064;2023-05-29T02:13:02;2.93;;;2.17;;
73733;SDS011;62039;50.000;9.064;2023-05-29T02:15:29;4.17;;;2.40;;
73733;SDS011;62039;50.000;9.064;2023-05-29T02:17:56;3.40;;;2.30;;
73733;SDS011;62039;50.000;9.064;2023-05-29T02:20:26;3.73;;;2.30;;
73733;SDS011;62039;50.000;9.064;2023-05-29T02:22:53;2.40;;;2.17;;
73733;SDS011;62039;50.000;9.064;2023-05-29T02:25:20;2.20;;;1.90;;
73733;SDS011;62039;50.000;9.064;2023-05-29T02:27:47;2.87;;;2.13;;
73733;SDS011;62039;50.000;9.064;2023-05-29T02:30:14;3.63;;;2.40;;
73733;SDS011;62039;50.000;9.064;2023-05-29T02:32:41;2.33;;;2.07;;
73733;SDS011;62039;50.000;9.064;2023-05-29T02:35:08;3.17;;;2.20;;
73733;SDS011;62039;50.000;9.064;2023-05-29T02:37:37;2.83;;;2.30;;
73733;SDS011;62039;50.000;9.064;2023-05-29T02:40:05;3.10;;;2.17;;
73733;SDS011;62039;50.000;9.064;2023-05-29T02:42:32;2.40;;;2.20;;
73733;SDS011;62039;50.000;9.064;2023-05-29T02:44:59;3.03;;;2.07;;
73733;SDS011;62039;50.000;9.064;2023-05-29T02:47:26;2.07;;;1.83;;
73733;SDS011;62039;50.000;9.064;2023-05-29T02:49:53;3.70;;;2.07;;
73733;SDS011;62039;50.000;9.064;2023-05-29T02:52:20;3.97;;;2.13;;
73733;SDS011;62039;50.000;9.064;2023-05-29T02:54:49;4.43;;;2.30;;
73733;SDS011;62039;50.000;9.064;2023-05-29T02:57:16;2.10;;;1.80;;
73733;SDS011;62039;50.000;9.064;2023-05-29T02:59:43;3.17;;;2.47;;
73733;SDS011;62039;50.000;9.064;2023-05-29T03:02:10;3.30;;;2.17;;
73733;SDS011;62039;50.000;9.064;2023-05-29T03:04:37;2.93;;;2.13;;
73733;SDS011;62039;50.000;9.064;2023-05-29T03:07:04;2.57;;;1.97;;
73733;SDS011;62039;50.000;9.064;2023-05-29T03:09:31;2.37;;;2.00;;
73733;SDS011;62039;50.000;9.064;2023-05-29T03:12:00;3.23;;;2.20;;
73733;SDS011;62039;50.000;9.064;2023-05-29T03:14:27;3.30;;;2.30;;
73733;SDS011;62039;50.000;9.064;2023-05-29T03:16:54;2.37;;;2.17;;
73733;SDS011;62039;50.000;9.064;2023-05-29T03:19:21;3.57;;;2.53;;
73733;SDS011;62039;50.000;9.064;2023-05-29T03:21:48;2.90;;;2.23;;
73733;SDS011;62039;50.000;9.064;2023-05-29T03:24:15;3.13;;;2.43;;
73733;SDS011;62039;50.000;9.064;2023-05-29T03:26:42;3.43;;;2.33;;
73733;SDS011;62039;50.000;9.064;2023-05-29T03:29:12;4.43;;;2.53;;
73733;SDS011;62039;50.000;9.064;2023-05-29T03:31:39;3.20;;;2.27;;
73733;SDS011;62039;50.000;9.064;2023-05-29T03:34:06;5.03;;;2.40;;
73733;SDS011;62039;50.000;9.064;2023-05-29T03:36:32;2.87;;;2.20;;
73733;SDS011;62039;50.000;9.064;2023-05-29T03:38:59;2.93;;;2.00;;
73733;SDS011;62039;50.000;9.064;2023-05-29T03:41:26;2.53;;;2.33;;
73733;SDS011;62039;50.000;9.064;2023-05-29T03:43:53;2.37;;;2.10;;
73733;SDS011;62039;50.000;9.064;2023-05-29T03:46:23;4.40;;;2.50;;
73733;SDS011;62039;50.000;9.064;2023-05-29T03:48:50;2.53;;;2.17;;
73733;SDS011;62039;50.000;9.064;2023-05-29T03:51:17;2.50;;;2.30;;
73733;SDS011;62039;50.000;9.064;2023-05-29T03:53:44;4.33;;;2.50;;
73733;SDS011;62039;50.000;9.064;2023-05-29T03:56:11;2.83;;;2.47;;
73733;SDS011;62039;50.000;9.064;2023-05-29T03:58:38;2.47;;;2.27;;
73733;SDS011;62039;50.000;9.064;2023-05-29T04:01:05;3.43;;;2.73;;
73733;SDS011;62039;50.000;9.064;2023-05-29T04:03:34;3.70;;;2.47;;
73733;SDS011;62039;50.000;9.064;2023-05-29T04:06:02;3.43;;;2.40;;
73733;SDS011;62039;50.000;9.064;2023-05-29T04:08:29;2.33;;;2.10;;
73733;SDS011;62039;50.000;9.064;2023-05-29T04:10:56;2.90;;;2.23;;
73733;SDS011;62039;50.000;9.064;2023-05-29T04:13:23;4.70;;;2.07;;
73733;SDS011;62039;50.000;9.064;2023-05-29T04:15:50;2.67;;;2.17;;
73733;SDS011;62039;50.000;9.064;2023-05-29T04:18:17;2.47;;;2.20;;
73733;SDS011;62039;50.000;9.064;2023-05-29T04:20:46;2.73;;;2.33;;
73733;SDS011;62039;50.000;9.064;2023-05-29T04:23:13;4.50;;;2.87;;
73733;SDS011;62039;50.000;9.064;2023-05-29T04:25:40;2.97;;;2.67;;
73733;SDS011;62039;50.000;9.064;2023-05-29T04:28:07;2.27;;;2.03;;
73733;SDS011;62039;50.000;9.064;2023-05-29T04:30:34;2.53;;;2.33;;
73733;SDS011;62039;50.000;9.064;2023-05-29T04:33:02;2.60;;;2.30;;
73733;SDS011;62039;50.000;9.064;2023-05-29T04:35:29;2.87;;;2.10;;
73733;SDS011;62039;50.000;9.064;2023-05-29T04:37:59;4.30;;;2.10;;
73733;SDS011;62039;50.000;9.064;2023-05-29T04:40:26;3.60;;;2.50;;
73733;SDS011;62039;50.000;9.064;2023-05-29T04:42:53;2.77;;;2.40;;
73733;SDS011;62039;50.000;9.064;2023-05-29T04:45:20;2.63;;;2.17;;
73733;SDS011;62039;50.000;9.064;2023-05-29T04:47:47;3.03;;;2.30;;
73733;SDS011;62039;50.000;9.064;2023-05-29T04:50:15;7.00;;;2.57;;
73733;SDS011;62039;50.000;9.064;2023-05-29T04:52:43;2.77;;;2.37;;
73733;SDS011;62039;50.000;9.064;2023-05-29T04:55:12;3.07;;;2.27;;
73733;SDS011;62039;50.000;9.064;2023-05-29T04:57:39;3.63;;;2.63;;
73733;SDS011;62039;50.000;9.064;2023-05-29T05:00:07;3.03;;;2.50;;
73733;SDS011;62039;50.000;9.064;2023-05-29T05:02:34;3.13;;;2.30;;
73733;SDS011;62039;50.000;9.064;2023-05-29T05:05:01;3.53;;;2.20;;
73733;SDS011;62039;50.000;9.064;2023-05-29T05:07:28;2.67;;;2.23;;
73733;SDS011;62039;50.000;9.064;2023-05-29T05:09:55;3.20;;;2.03;;
73733;SDS011;62039;50.000;9.064;2023-05-29T05:12:25;3.67;;;2.40;;
73733;SDS011;62039;50.000;9.064;2023-05-29T05:14:52;2.30;;;2.00;;
73733;SDS011;62039;50.000;9.064;2023-05-29T05:17:19;3.43;;;2.30;;
73733;SDS011;62039;50.000;9.064;2023-05-29T05:19:46;2.57;;;2.20;;
73733;SDS011;62039;50.000;9.064;2023-05-29T05:22:13;2.77;;;2.13;;
73733;SDS011;62039;50.000;9.064;2023-05-29T05:24:40;4.73;;;2.40;;
73733;SDS011;62039;50.000;9.064;2023-05-29T05:27:07;3.10;;;2.20;;
73733;SDS011;62039;50.000;9.064;2023-05-29T05:29:36;2.53;;;2.20;;
73733;SDS011;62039;50.000;9.064;2023-05-29T05:32:04;2.50;;;2.20;;
73733;SDS011;62039;50.000;9.064;2023-05-29T05:34:31;2.83;;;2.33;;
73733;SDS011;62039;50.000;9.064;2023-05-29T05:36:58;2.23;;;1.93;;
73733;SDS011;62039;50.000;9.064;2023-05-29T05:39:25;2.23;;;1.97;;
73733;SDS011;62039;50.000;9.064;2023-05-29T05:41:52;2.93;;;2.30;;
73733;SDS011;62039;50.000;9.064;2023-05-29T05:44:19;3.00;;;1.90;;
73733;SDS011;62039;50.000;9.064;2023-05-29T05:46:48;2.77;;;2.10;;
73733;SDS011;62039;50.000;9.064;2023-05-29T05:49:15;2.97;;;2.10;;
73733;SDS011;62039;50.000;9.064;2023-05-29T05:51:42;2.43;;;2.00;;
73733;SDS011;62039;50.000;9.064;2023-05-29T05:54:09;2.60;;;1.97;;
73733;SDS011;62039;50.000;9.064;2023-05-29T05:56:36;3.63;;;1.93;;
73733;SDS011;62039;50.000;9.064;2023-05-29T05:59:03;3.47;;;1.70;;
73733;SDS011;62039;50.000;9.064;2023-05-29T06:01:30;3.00;;;2.00;;
73733;SDS011;62039;50.000;9.064;2023-05-29T06:04:00;3.53;;;2.30;;
73733;SDS011;62039;50.000;9.064;2023-05-29T06:06:27;3.53;;;1.93;;
73733;SDS011;62039;50.000;9.064;2023-05-29T06:08:57;3.40;;;2.13;;
73733;SDS011;62039;50.000;9.064;2023-05-29T06:11:24;2.20;;;2.00;;
73733;SDS011;62039;50.000;9.064;2023-05-29T06:13:51;2.33;;;1.70;;
73733;SDS011;62039;50.000;9.064;2023-05-29T06:16:18;1.90;;;1.63;;
73733;SDS011;62039;50.000;9.064;2023-05-29T06:18:45;2.67;;;1.80;;
73733;SDS011;62039;50.000;9.064;2023-05-29T06:21:15;2.67;;;1.80;;
73733;SDS011;62039;50.000;9.064;2023-05-29T06:23:42;2.17;;;1.90;;
73733;SDS011;62039;50.000;9.064;2023-05-29T06:26:09;3.30;;;1.90;;
73733;SDS011;62039;50.000;9.064;2023-05-29T06:28:36;1.93;;;1.63;;
73733;SDS011;62039;50.000;9.064;2023-05-29T06:31:03;2.80;;;1.87;;
73733;SDS011;62039;50.000;9.064;2023-05-29T06:33:30;3.00;;;2.27;;
73733;SDS011;62039;50.000;9.064;2023-05-29T06:35:57;2.63;;;2.00;;
73733;SDS011;62039;50.000;9.064;2023-05-29T06:38:28;2.40;;;2.00;;
73733;SDS011;62039;50.000;9.064;2023-05-29T06:40:55;2.73;;;1.90;;
73733;SDS011;62039;50.000;9.064;2023-05-29T06:43:22;2.30;;;1.77;;
73733;SDS011;62039;50.000;9.064;2023-05-29T06:45:49;3.10;;;2.00;;
73733;SDS011;62039;50.000;9.064;2023-05-29T06:48:16;2.47;;;1.97;;
73733;SDS011;62039;50.000;9.064;2023-05-29T06:50:43;3.13;;;2.03;;
73733;SDS011;62039;50.000;9.064;2023-05-29T06:53:10;2.40;;;1.70;;
73733;SDS011;62039;50.000;9.064;2023-05-29T06:55:42;2.47;;;2.20;;
73733;SDS011;62039;50.000;9.064;2023-05-29T06:58:10;2.87;;;2.00;;
73733;SDS011;62039;50.000;9.064;2023-05-29T07:00:37;2.10;;;1.87;;
73733;SDS011;62039;50.000;9.064;2023-05-29T07:03:04;2.17;;;1.73;;
73733;SDS011;62039;50.000;9.064;2023-05-29T07:05:31;2.37;;;1.90;;
73733;SDS011;62039;50.000;9.064;2023-05-29T07:07:58;1.90;;;1.70;;
73733;SDS011;62039;50.000;9.064;2023-05-29T07:10:25;2.47;;;1.80;;
73733;SDS011;62039;50.000;9.064;2023-05-29T07:12:55;2.20;;;1.80;;
73733;SDS011;62039;50.000;9.064;2023-05-29T07:15:22;3.13;;;2.00;;
73733;SDS011;62039;50.000;9.064;2023-05-29T07:17:49;2.37;;;2.00;;
73733;SDS011;62039;50.000;9.064;2023-05-29T07:20:16;2.03;;;1.80;;
73733;SDS011;62039;50.000;9.064;2023-05-29T07:22:43;2.17;;;1.80;;
73733;SDS011;62039;50.000;9.064;2023-05-29T07:25:10;2.40;;;1.90;;
73733;SDS011;62039;50.000;9.064;2023-05-29T07:27:37;2.00;;;1.63;;
73733;SDS011;62039;50.000;9.064;2023-05-29T07:30:07;2.57;;;2.00;;
73733;SDS011;62039;50.000;9.064;2023-05-29T07:32:34;2.57;;;2.10;;
73733;SDS011;62039;50.000;9.064;2023-05-29T07:35:01;2.90;;;2.30;;
73733;SDS011;62039;50.000;9.064;2023-05-29T07:37:28;2.87;;;2.50;;
73733;SDS011;62039;50.000;9.064;2023-05-29T07:39:55;2.90;;;2.47;;
73733;SDS011;62039;50.000;9.064;2023-05-29T07:42:22;2.30;;;2.10;;
73733;SDS011;62039;50.000;9.064;2023-05-29T07:44:49;2.70;;;2.33;;
73733;SDS011;62039;50.000;9.064;2023-05-29T07:47:19;2.40;;;1.90;;
73733;SDS011;62039;50.000;9.064;2023-05-29T07:49:45;2.93;;;1.80;;
73733;SDS011;62039;50.000;9.064;2023-05-29T07:52:12;2.33;;;2.13;;
73733;SDS011;62039;50.000;9.064;2023-05-29T07:54:39;1.90;;;1.70;;
73733;SDS011;62039;50.000;9.064;2023-05-29T07:57:06;2.77;;;2.20;;
73733;SDS011;62039;50.000;9.064;2023-05-29T07:59:35;2.30;;;2.10;;
73733;SDS011;62039;50.000;9.064;2023-05-29T08:02:02;2.50;;;2.30;;
73733;SDS011;62039;50.000;9.064;2023-05-29T08:04:31;3.70;;;2.30;;
73733;SDS011;62039;50.000;9.064;2023-05-29T08:06:58;2.77;;;1.90;;
73733;SDS011;62039;50.000;9.064;2023-05-29T08:09:26;2.50;;;1.97;;
73733;SDS011;62039;50.000;9.064;2023-05-29T08:11:53;2.90;;;2.20;;
73733;SDS011;62039;50.000;9.064;2023-05-29T08:14:20;2.10;;;1.90;;
73733;SDS011;62039;50.000;9.064;2023-05-29T08:16:47;2.20;;;1.80;;
73733;SDS011;62039;50.000;9.064;2023-05-29T08:19:14;2.30;;;2.10;;
73733;SDS011;62039;50.000;9.064;2023-05-29T08:21:43;3.50;;;1.93;;
73733;SDS011;62039;50.000;9.064;2023-05-29T08:24:10;2.63;;;1.60;;
73733;SDS011;62039;50.000;9.064;2023-05-29T08:26:37;2.50;;;1.83;;
73733;SDS011;62039;50.000;9.064;2023-05-29T08:29:04;1.90;;;1.63;;
73733;SDS011;62039;50.000;9.064;2023-05-29T08:31:31;1.83;;;1.53;;
73733;SDS011;62039;50.000;9.064;2023-05-29T08:33:58;2.20;;;1.67;;
73733;SDS011;62039;50.000;9.064;2023-05-29T08:36:25;2.40;;;1.80;;
73733;SDS011;62039;50.000;9.064;2023-05-29T08:38:54;1.87;;;1.73;;
73733;SDS011;62039;50.000;9.064;2023-05-29T08:41:26;1.80;;;1.60;;
73733;SDS011;62039;50.000;9.064;2023-05-29T08:44:00;2.20;;;1.90;;
73733;SDS011;62039;50.000;9.064;2023-05-29T08:46:29;2.70;;;1.70;;
73733;SDS011;62039;50.000;9.064;2023-05-29T08:48:58;1.93;;;1.67;;
73733;SDS011;62039;50.000;9.064;2023-05-29T08:51:27;2.23;;;1.83;;
73733;SDS011;62039;50.000;9.064;2023-05-29T08:54:00;2.30;;;1.77;;
73733;SDS011;62039;50.000;9.064;2023-05-29T08:56:27;2.80;;;2.27;;
73733;SDS011;62039;50.000;9.064;2023-05-29T08:59:00;2.37;;;2.03;;
73733;SDS011;62039;50.000;9.064;2023-05-29T09:01:31;3.37;;;2.20;;
73733;SDS011;62039;50.000;9.064;2023-05-29T09:03:59;3.17;;;2.00;;
73733;SDS011;62039;50.000;9.064;2023-05-29T09:06:26;2.37;;;2.00;;
73733;SDS011;62039;50.000;9.064;2023-05-29T09:08:53;3.13;;;1.97;;
73733;SDS011;62039;50.000;9.064;2023-05-29T09:11:23;1.60;;;1.50;;
73733;SDS011;62039;50.000;9.064;2023-05-29T09:13:51;1.90;;;1.70;;
73733;SDS011;62039;50.000;9.064;2023-05-29T09:16:18;2.03;;;1.80;;
73733;SDS011;62039;50.000;9.064;2023-05-29T09:18:45;1.90;;;1.80;;
73733;SDS011;62039;50.000;9.064;2023-05-29T09:21:17;2.10;;;1.70;;
73733;SDS011;62039;50.000;9.064;2023-05-29T09:23:52;2.13;;;1.77;;
73733;SDS011;62039;50.000;9.064;2023-05-29T09:26:23;2.63;;;1.63;;
73733;SDS011;62039;50.000;9.064;2023-05-29T09:28:50;1.60;;;1.50;;
73733;SDS011;62039;50.000;9.064;2023-05-29T09:31:17;1.87;;;1.60;;
73733;SDS011;62039;50.000;9.064;2023-05-29T09:33:46;1.50;;;1.40;;
73733;SDS011;62039;50.000;9.064;2023-05-29T09:36:19;1.60;;;1.50;;
73733;SDS011;62039;50.000;9.064;2023-05-29T09:38:46;1.50;;;1.40;;
73733;SDS011;62039;50.000;9.064;2023-05-29T09:41:24;2.53;;;1.77;;
73733;SDS011;62039;50.000;9.064;2023-05-29T09:43:51;1.60;;;1.40;;
73733;SDS011;62039;50.000;9.064;2023-05-29T09:46:18;1.70;;;1.60;;
73733;SDS011;62039;50.000;9.064;2023-05-29T09:48:45;1.60;;;1.50;;
73733;SDS011;62039;50.000;9.064;2023-05-29T09:51:18;1.87;;;1.60;;
73733;SDS011;62039;50.000;9.064;2023-05-29T09:53:46;2.07;;;1.87;;
73733;SDS011;62039;50.000;9.064;2023-05-29T09:56:13;2.57;;;1.87;;
73733;SDS011;62039;50.000;9.064;2023-05-29T09:58:44;2.93;;;1.67;;
73733;SDS011;62039;50.000;9.064;2023-05-29T10:01:11;4.47;;;1.60;;
73733;SDS011;62039;50.000;9.064;2023-05-29T10:03:39;1.70;;;1.60;;
73733;SDS011;62039;50.000;9.064;2023-05-29T10:06:06;1.87;;;1.77;;
73733;SDS011;62039;50.000;9.064;2023-05-29T10:08:34;1.87;;;1.60;;
73733;SDS011;62039;50.000;9.064;2023-05-29T10:11:05;2.28;;;1.63;;
73733;SDS011;62039;50.000;9.064;2023-05-29T10:13:33;1.53;;;1.43;;
73733;SDS011;62039;50.000;9.064;2023-05-29T10:16:04;2.30;;;1.83;;
73733;SDS011;62039;50.000;9.064;2023-05-29T10:18:35;2.00;;;1.60;;
73733;SDS011;62039;50.000;9.064;2023-05-29T10:21:04;1.65;;;1.45;;
73733;SDS011;62039;50.000;9.064;2023-05-29T10:23:34;1.65;;;1.55;;
73733;SDS011;62039;50.000;9.064;2023-05-29T10:26:04;2.75;;;1.80;;
73733;SDS011;62039;50.000;9.064;2023-05-29T10:28:37;2.00;;;1.83;;
73733;SDS011;62039;50.000;9.064;2023-05-29T10:31:10;1.90;;;1.70;;
73733;SDS011;62039;50.000;9.064;2023-05-29T10:33:48;2.20;;;1.80;;
73733;SDS011;62039;50.000;9.064;2023-05-29T10:36:20;3.58;;;1.77;;
73733;SDS011;62039;50.000;9.064;2023-05-29T10:38:49;1.67;;;1.58;;
73733;SDS011;62039;50.000;9.064;2023-05-29T10:44:02;1.77;;;1.58;;
73733;SDS011;62039;50.000;9.064;2023-05-29T10:49:30;1.63;;;1.52;;
73733;SDS011;62039;50.000;9.064;2023-05-29T10:51:58;2.00;;;1.33;;
73733;SDS011;62039;50.000;9.064;2023-05-29T10:54:25;2.28;;;1.95;;
73733;SDS011;62039;50.000;9.064;2023-05-29T10:56:54;1.98;;;1.75;;
73733;SDS011;62039;50.000;9.064;2023-05-29T10:59:22;2.03;;;1.63;;
73733;SDS011;62039;50.000;9.064;2023-05-29T11:01:49;2.28;;;1.83;;
73733;SDS011;62039;50.000;9.064;2023-05-29T11:04:30;2.08;;;1.80;;
73733;SDS011;62039;50.000;9.064;2023-05-29T11:06:57;2.03;;;1.88;;
73733;SDS011;62039;50.000;9.064;2023-05-29T11:09:28;2.20;;;1.85;;
73733;SDS011;62039;50.000;9.064;2023-05-29T11:14:45;2.00;;;1.80;;
73733;SDS011;62039;50.000;9.064;2023-05-29T11:20:01;2.15;;;1.75;;
73733;SDS011;62039;50.000;9.064;2023-05-29T11:22:31;2.17;;;1.58;;
73733;SDS011;62039;50.000;9.064;2023-05-29T11:25:09;2.00;;;1.80;;
73733;SDS011;62039;50.000;9.064;2023-05-29T11:27:39;2.00;;;1.90;;
73733;SDS011;62039;50.000;9.064;2023-05-29T11:30:07;2.17;;;1.90;;
73733;SDS011;62039;50.000;9.064;2023-05-29T11:32:34;3.25;;;2.05;;
73733;SDS011;62039;50.000;9.064;2023-05-29T11:35:07;3.83;;;2.00;;
73733;SDS011;62039;50.000;9.064;2023-05-29T11:37:35;2.10;;;1.90;;
73733;SDS011;62039;50.000;9.064;2023-05-29T11:40:03;2.13;;;1.90;;
73733;SDS011;62039;50.000;9.064;2023-05-29T11:42:30;2.08;;;1.70;;
73733;SDS011;62039;50.000;9.064;2023-05-29T11:45:09;1.83;;;1.73;;
73733;SDS011;62039;50.000;9.064;2023-05-29T11:47:49;1.95;;;1.75;;
73733;SDS011;62039;50.000;9.064;2023-05-29T11:50:21;1.70;;;1.60;;
73733;SDS011;62039;50.000;9.064;2023-05-29T11:52:48;1.70;;;1.60;;
73733;SDS011;62039;50.000;9.064;2023-05-29T11:55:15;2.10;;;1.90;;
73733;SDS011;62039;50.000;9.064;2023-05-29T11:57:42;3.00;;;2.00;;
73733;SDS011;62039;50.000;9.064;2023-05-29T12:00:12;1.80;;;1.70;;
73733;SDS011;62039;50.000;9.064;2023-05-29T12:02:41;2.90;;;1.70;;
73733;SDS011;62039;50.000;9.064;2023-05-29T12:05:09;3.38;;;1.98;;
73733;SDS011;62039;50.000;9.064;2023-05-29T12:07:39;2.10;;;1.90;;
73733;SDS011;62039;50.000;9.064;2023-05-29T12:10:14;2.00;;;1.80;;
73733;SDS011;62039;50.000;9.064;2023-05-29T12:12:42;2.60;;;2.38;;
73733;SDS011;62039;50.000;9.064;2023-05-29T12:15:14;1.90;;;1.73;;
73733;SDS011;62039;50.000;9.064;2023-05-29T12:17:41;2.10;;;1.90;;
73733;SDS011;62039;50.000;9.064;2023-05-29T12:20:09;2.20;;;1.95;;
73733;SDS011;62039;50.000;9.064;2023-05-29T12:22:41;2.10;;;1.90;;
73733;SDS011;62039;50.000;9.064;2023-05-29T12:25:09;1.98;;;1.83;;
73733;SDS011;62039;50.000;9.064;2023-05-29T12:27:38;2.67;;;1.80;;
73733;SDS011;62039;50.000;9.064;2023-05-29T12:30:06;2.10;;;1.90;;
73733;SDS011;62039;50.000;9.064;2023-05-29T12:32:36;2.20;;;2.00;;
73733;SDS011;62039;50.000;9.064;2023-05-29T12:35:11;2.20;;;1.88;;
73733;SDS011;62039;50.000;9.064;2023-05-29T12:37:44;2.10;;;1.90;;
73733;SDS011;62039;50.000;9.064;2023-05-29T12:40:15;1.70;;;1.60;;
73733;SDS011;62039;50.000;9.064;2023-05-29T12:42:43;2.20;;;1.90;;
73733;SDS011;62039;50.000;9.064;2023-05-29T12:45:11;2.40;;;1.98;;
73733;SDS011;62039;50.000;9.064;2023-05-29T12:47:44;2.00;;;1.80;;
73733;SDS011;62039;50.000;9.064;2023-05-29T12:50:21;2.15;;;1.90;;
73733;SDS011;62039;50.000;9.064;2023-05-29T12:52:55;2.00;;;1.80;;
73733;SDS011;62039;50.000;9.064;2023-05-29T12:55:23;2.10;;;1.90;;
73733;SDS011;62039;50.000;9.064;2023-05-29T12:57:50;2.10;;;1.75;;
73733;SDS011;62039;50.000;9.064;2023-05-29T13:00:17;2.53;;;2.33;;
73733;SDS011;62039;50.000;9.064;2023-05-29T13:02:45;2.10;;;1.83;;
73733;SDS011;62039;50.000;9.064;2023-05-29T13:05:12;1.95;;;1.80;;
73733;SDS011;62039;50.000;9.064;2023-05-29T13:07:39;1.90;;;1.77;;
73733;SDS011;62039;50.000;9.064;2023-05-29T13:10:09;1.85;;;1.73;;
73733;SDS011;62039;50.000;9.064;2023-05-29T13:12:36;1.83;;;1.73;;
73733;SDS011;62039;50.000;9.064;2023-05-29T13:15:07;3.58;;;1.98;;
73733;SDS011;62039;50.000;9.064;2023-05-29T13:17:34;2.10;;;1.98;;
73733;SDS011;62039;50.000;9.064;2023-05-29T13:20:01;2.15;;;1.95;;
73733;SDS011;62039;50.000;9.064;2023-05-29T13:22:28;3.60;;;2.07;;
73733;SDS011;62039;50.000;9.064;2023-05-29T13:24:55;2.05;;;1.88;;
73733;SDS011;62039;50.000;9.064;2023-05-29T13:27:26;2.15;;;1.95;;
73733;SDS011;62039;50.000;9.064;2023-05-29T13:29:53;2.10;;;1.80;;
73733;SDS011;62039;50.000;9.064;2023-05-29T13:32:21;3.13;;;2.20;;
73733;SDS011;62039;50.000;9.064;2023-05-29T13:34:48;3.63;;;2.10;;
73733;SDS011;62039;50.000;9.064;2023-05-29T13:37:15;1.97;;;1.77;;
73733;SDS011;62039;50.000;9.064;2023-05-29T13:39:42;2.50;;;2.13;;
73733;SDS011;62039;50.000;9.064;2023-05-29T13:42:09;2.88;;;2.22;;
73733;SDS011;62039;50.000;9.064;2023-05-29T13:44:39;2.25;;;2.05;;
73733;SDS011;62039;50.000;9.064;2023-05-29T13:47:06;2.33;;;2.05;;
73733;SDS011;62039;50.000;9.064;2023-05-29T13:49:33;2.50;;;2.30;;
73733;SDS011;62039;50.000;9.064;2023-05-29T13:52:01;2.40;;;2.10;;
73733;SDS011;62039;50.000;9.064;2023-05-29T13:54:28;2.20;;;2.00;;
73733;SDS011;62039;50.000;9.064;2023-05-29T13:56:56;2.43;;;2.10;;
73733;SDS011;62039;50.000;9.064;2023-05-29T13:59:23;3.00;;;2.17;;
73733;SDS011;62039;50.000;9.064;2023-05-29T14:01:52;2.33;;;2.07;;
73733;SDS011;62039;50.000;9.064;2023-05-29T14:04:19;2.20;;;1.80;;
73733;SDS011;62039;50.000;9.064;2023-05-29T14:06:46;2.50;;;1.90;;
73733;SDS011;62039;50.000;9.064;2023-05-29T14:09:13;2.00;;;1.80;;
73733;SDS011;62039;50.000;9.064;2023-05-29T14:11:40;1.80;;;1.60;;
73733;SDS011;62039;50.000;9.064;2023-05-29T14:14:07;2.00;;;1.80;;
73733;SDS011;62039;50.000;9.064;2023-05-29T14:16:34;2.20;;;2.00;;
73733;SDS011;62039;50.000;9.064;2023-05-29T14:19:04;2.13;;;1.93;;
73733;SDS011;62039;50.000;9.064;2023-05-29T14:21:31;3.37;;;2.07;;
73733;SDS011;62039;50.000;9.064;2023-05-29T14:23:58;1.90;;;1.80;;
73733;SDS011;62039;50.000;9.064;2023-05-29T14:26:25;2.03;;;1.87;;
73733;SDS011;62039;50.000;9.064;2023-05-29T14:28:52;1.77;;;1.67;;
73733;SDS011;62039;50.000;9.064;2023-05-29T14:31:35;2.20;;;2.00;;
73733;SDS011;62039;50.000;9.064;2023-05-29T14:34:04;2.27;;;2.00;;
73733;SDS011;62039;50.000;9.064;2023-05-29T14:36:31;2.53;;;1.83;;
73733;SDS011;62039;50.000;9.064;2023-05-29T14:38:58;2.20;;;2.00;;
73733;SDS011;62039;50.000;9.064;2023-05-29T14:41:25;2.47;;;1.93;;
73733;SDS011;62039;50.000;9.064;2023-05-29T14:43:52;2.40;;;2.20;;
73733;SDS011;62039;50.000;9.064;2023-05-29T14:46:19;2.47;;;1.93;;
73733;SDS011;62039;50.000;9.064;2023-05-29T14:48:46;2.87;;;2.10;;
73733;SDS011;62039;50.000;9.064;2023-05-29T14:51:15;2.10;;;1.90;;
73733;SDS011;62039;50.000;9.064;2023-05-29T14:53:42;2.17;;;1.97;;
73733;SDS011;62039;50.000;9.064;2023-05-29T14:56:09;2.00;;;1.80;;
73733;SDS011;62039;50.000;9.064;2023-05-29T14:58:36;3.17;;;2.20;;
73733;SDS011;62039;50.000;9.064;2023-05-29T15:01:03;3.23;;;2.00;;
73733;SDS011;62039;50.000;9.064;2023-05-29T15:03:31;23.30;;;21.23;;
73733;SDS011;62039;50.000;9.064;2023-05-29T15:05:58;41.40;;;37.77;;
73733;SDS011;62039;50.000;9.064;2023-05-29T15:08:28;27.80;;;25.50;;